Diane H — WUR7250 — position and weather

sailwx.info

Track history (hours):
 
Tides and Currents Weather Stations Pressure Air Temp Water Temp Dewpoint Dewpoint Depression Visibility Wind Speed Wind Dir Waves Ship Positions

Diane H

Owner: BOYER TOWING INC, KETCHIKAN, AK. More information available from US FCC via Universal Licensing System and Coast Guard Vessel Documentation Center.

Last reported at 2018-Jan-20 08:23 UTC. Time now 2018-Jan-22 02:50 UTC.
Position N 47°32' W 122°20'.

Type: Tug. MMSI: 366673090.

Date/timePositionNaut miles runAvg speedWind from/ knotsBaromVisibWave heightAir tempDewpointWater temp
2018-Jan-20 08:23N 47°32' W 122°20'0 0.0
2018-Jan-20 08:00N 47°32' W 122°20'0 0.0
2018-Jan-20 07:30N 47°32' W 122°20'0 0.0
2018-Jan-20 07:00N 47°32' W 122°20'0 0.1
2018-Jan-20 06:30N 47°32' W 122°20'0 0.1
2018-Jan-20 06:00N 47°32' W 122°20'0 0.2
2018-Jan-20 05:30N 47°32' W 122°20'0 0.4
2018-Jan-20 04:58N 47°32' W 122°20'2 4.1
2018-Jan-20 04:30N 47°34' W 122°21'2 3.5
2018-Jan-20 04:00N 47°36' W 122°22'1 2.8
2018-Jan-20 03:30N 47°37' W 122°23'4 7.5
2018-Jan-20 03:00N 47°39' W 122°28'4 7.2
2018-Jan-20 02:30N 47°43' W 122°28'4 7.3
2018-Jan-20 02:00N 47°46' W 122°27'4 7.7
2018-Jan-20 01:30N 47°50' W 122°28'4 7.9
2018-Jan-20 01:00N 47°54' W 122°30'4 8.2
2018-Jan-20 00:29N 47°57' W 122°34'22 7.5
2018-Jan-19 21:30N 48°17' W 122°48'4 7.2
2018-Jan-19 20:59N 48°21' W 122°46'4 7.5
2018-Jan-19 20:30N 48°25' W 122°45'4 7.7
2018-Jan-19 20:00N 48°28' W 122°44'4 8.9
2018-Jan-19 19:30N 48°32' W 122°41'4 9.0
2018-Jan-19 19:00N 48°36' W 122°38'4 7.9
2018-Jan-19 18:30N 48°39' W 122°34'4 7.9
2018-Jan-19 17:58N 48°43' W 122°32'1 2.1
2018-Jan-19 17:30N 48°44' W 122°31'1 1.1
2018-Jan-19 17:00N 48°43' W 122°31'0 0.4
2018-Jan-19 16:29N 48°44' W 122°31'4 8.8
2018-Jan-19 16:00N 48°40' W 122°34'510.6
2018-Jan-19 15:30N 48°36' W 122°39'612.4
2018-Jan-19 15:00N 48°30' W 122°43'712.7
2018-Jan-19 14:28N 48°23' W 122°44'1110.7
2018-Jan-19 13:25N 48°12' W 122°45'11 8.1
2018-Jan-19 12:08N 48°03' W 122°38'1 8.8
2018-Jan-19 11:58N 48°02' W 122°37'4 8.1
2018-Jan-19 11:30N 47°58' W 122°34'4 8.8
2018-Jan-19 11:01N 47°56' W 122°29'510.6
2018-Jan-19 10:30N 47°51' W 122°27'611.4
2018-Jan-19 10:00N 47°45' W 122°26'611.4
2018-Jan-19 09:31N 47°39' W 122°27'610.9
2018-Jan-19 08:58N 47°35' W 122°22'3 5.6
2018-Jan-19 08:30N 47°32' W 122°20'0 0.0
2018-Jan-19 07:59N 47°32' W 122°20'  
2018-Jan-12 15:00N 48°37' W 122°37'3 5.5
2018-Jan-12 14:30N 48°35' W 122°40'3 5.2
2018-Jan-12 14:00N 48°33' W 122°40'3 5.4
2018-Jan-12 13:30N 48°31' W 122°43'3 5.7
2018-Jan-12 12:59N 48°28' W 122°43'3 6.2
2018-Jan-12 12:26N 48°24' W 122°44'24 4.4
2018-Jan-12 07:08N 48°01' W 122°37'2 4.0
2018-Jan-12 06:42N 47°60' W 122°35'1 4.6
2018-Jan-12 06:31N 47°59' W 122°35'2 4.7
2018-Jan-12 06:00N 47°58' W 122°32'3 5.3
2018-Jan-12 05:31N 47°56' W 122°29'3 5.4
2018-Jan-12 05:00N 47°53' W 122°28'3 6.0
2018-Jan-12 04:31N 47°50' W 122°27'3 6.5
2018-Jan-12 04:01N 47°47' W 122°26'3 6.6
2018-Jan-12 03:31N 47°44' W 122°26'4 7.3
2018-Jan-12 03:01N 47°40' W 122°27'3 6.5
2018-Jan-12 02:31N 47°37' W 122°25'3 5.8
2018-Jan-12 02:01N 47°35' W 122°22'3 5.8
2018-Jan-12 01:31N 47°33' W 122°20'0 0.5
2018-Jan-12 00:52N 47°32' W 122°20'0 0.1
2018-Jan-12 00:30N 47°32' W 122°20'0 0.0
2018-Jan-11 23:56N 47°32' W 122°20'0 0.0
2018-Jan-11 23:29N 47°32' W 122°20'0 0.1
2018-Jan-11 23:00N 47°32' W 122°20'0 0.4
2018-Jan-11 22:31N 47°32' W 122°20'  
Track history (hours):
 
Tides and Currents Weather Stations Pressure Air Temp Water Temp Dewpoint Dewpoint Depression Visibility Wind Speed Wind Dir Waves Ship Positions

Diane H

Owner: BOYER TOWING INC, KETCHIKAN, AK. More information available from US FCC via Universal Licensing System and Coast Guard Vessel Documentation Center.

Last reported at 2018-Jan-20 08:23 UTC. Time now 2018-Jan-22 02:50 UTC.
Position N 47°32' W 122°20'.

Type: Tug. MMSI: 366673090.

Date/timePositionNaut miles runAvg speedWind from/ knotsBaromVisibWave heightAir tempDewpointWater temp
2018-Jan-20 08:23N 47°32' W 122°20'0 0.0
2018-Jan-20 08:00N 47°32' W 122°20'0 0.0
2018-Jan-20 07:30N 47°32' W 122°20'0 0.0
2018-Jan-20 07:00N 47°32' W 122°20'0 0.1
2018-Jan-20 06:30N 47°32' W 122°20'0 0.1
2018-Jan-20 06:00N 47°32' W 122°20'0 0.2
2018-Jan-20 05:30N 47°32' W 122°20'0 0.4
2018-Jan-20 04:58N 47°32' W 122°20'2 4.1
2018-Jan-20 04:30N 47°34' W 122°21'2 3.5
2018-Jan-20 04:00N 47°36' W 122°22'1 2.8
2018-Jan-20 03:30N 47°37' W 122°23'4 7.5
2018-Jan-20 03:00N 47°39' W 122°28'4 7.2
2018-Jan-20 02:30N 47°43' W 122°28'4 7.3
2018-Jan-20 02:00N 47°46' W 122°27'4 7.7
2018-Jan-20 01:30N 47°50' W 122°28'4 7.9
2018-Jan-20 01:00N 47°54' W 122°30'4 8.2
2018-Jan-20 00:29N 47°57' W 122°34'22 7.5
2018-Jan-19 21:30N 48°17' W 122°48'4 7.2
2018-Jan-19 20:59N 48°21' W 122°46'4 7.5
2018-Jan-19 20:30N 48°25' W 122°45'4 7.7
2018-Jan-19 20:00N 48°28' W 122°44'4 8.9
2018-Jan-19 19:30N 48°32' W 122°41'4 9.0
2018-Jan-19 19:00N 48°36' W 122°38'4 7.9
2018-Jan-19 18:30N 48°39' W 122°34'4 7.9
2018-Jan-19 17:58N 48°43' W 122°32'1 2.1
2018-Jan-19 17:30N 48°44' W 122°31'1 1.1
2018-Jan-19 17:00N 48°43' W 122°31'0 0.4
2018-Jan-19 16:29N 48°44' W 122°31'4 8.8
2018-Jan-19 16:00N 48°40' W 122°34'510.6
2018-Jan-19 15:30N 48°36' W 122°39'612.4
2018-Jan-19 15:00N 48°30' W 122°43'712.7
2018-Jan-19 14:28N 48°23' W 122°44'1110.7
2018-Jan-19 13:25N 48°12' W 122°45'11 8.1
2018-Jan-19 12:08N 48°03' W 122°38'1 8.8
2018-Jan-19 11:58N 48°02' W 122°37'4 8.1
2018-Jan-19 11:30N 47°58' W 122°34'4 8.8
2018-Jan-19 11:01N 47°56' W 122°29'510.6
2018-Jan-19 10:30N 47°51' W 122°27'611.4
2018-Jan-19 10:00N 47°45' W 122°26'611.4
2018-Jan-19 09:31N 47°39' W 122°27'610.9
2018-Jan-19 08:58N 47°35' W 122°22'3 5.6
2018-Jan-19 08:30N 47°32' W 122°20'0 0.0
2018-Jan-19 07:59N 47°32' W 122°20'  
2018-Jan-12 15:00N 48°37' W 122°37'3 5.5
2018-Jan-12 14:30N 48°35' W 122°40'3 5.2
2018-Jan-12 14:00N 48°33' W 122°40'3 5.4
2018-Jan-12 13:30N 48°31' W 122°43'3 5.7
2018-Jan-12 12:59N 48°28' W 122°43'3 6.2
2018-Jan-12 12:26N 48°24' W 122°44'24 4.4
2018-Jan-12 07:08N 48°01' W 122°37'2 4.0
2018-Jan-12 06:42N 47°60' W 122°35'1 4.6
2018-Jan-12 06:31N 47°59' W 122°35'2 4.7
2018-Jan-12 06:00N 47°58' W 122°32'3 5.3
2018-Jan-12 05:31N 47°56' W 122°29'3 5.4
2018-Jan-12 05:00N 47°53' W 122°28'3 6.0
2018-Jan-12 04:31N 47°50' W 122°27'3 6.5
2018-Jan-12 04:01N 47°47' W 122°26'3 6.6
2018-Jan-12 03:31N 47°44' W 122°26'4 7.3
2018-Jan-12 03:01N 47°40' W 122°27'3 6.5
2018-Jan-12 02:31N 47°37' W 122°25'3 5.8
2018-Jan-12 02:01N 47°35' W 122°22'3 5.8
2018-Jan-12 01:31N 47°33' W 122°20'0 0.5
2018-Jan-12 00:52N 47°32' W 122°20'0 0.1
2018-Jan-12 00:30N 47°32' W 122°20'0 0.0
2018-Jan-11 23:56N 47°32' W 122°20'0 0.0
2018-Jan-11 23:29N 47°32' W 122°20'0 0.1
2018-Jan-11 23:00N 47°32' W 122°20'0 0.4
2018-Jan-11 22:31N 47°32' W 122°20'  

Dump ship's entire track history